Time;durP1;ratioP1;P1;durP2;ratioP2;P2;SDS_P1;SDS_P2;PMS_P1;PMS_P2;Temp;Humidity;BMP_temperature;BMP_pressure;BME280_temperature;BME280_humidity;BME280_pressure;Samples;Min_cycle;Max_cycle;Signal;HPM_P1;HPM_P2
2023/11/08 00:00:15;;;;;;;0.10;0.10;;;;;;;4.48;100.00;96003.31;1027071;28;20038;-73
2023/11/08 00:00:46;;;;;;;0.22;0.22;;;;;;;4.46;100.00;96005.38;1030624;28;20689;-74
2023/11/08 00:01:16;;;;;;;0.05;0.05;;;;;;;4.48;100.00;96007.72;1039326;28;20064;-71
2023/11/08 00:01:47;;;;;;;0.00;0.00;;;;;;;4.47;100.00;96004.34;1032927;28;20061;-73
2023/11/08 00:02:18;;;;;;;0.00;0.00;;;;;;;4.51;100.00;96009.13;1022867;29;20020;-74
2023/11/08 00:02:48;;;;;;;0.00;0.00;;;;;;;4.46;100.00;96005.38;1018918;29;20579;-73
2023/11/08 00:03:20;;;;;;;0.10;0.10;;;;;;;4.47;100.00;96006.94;1020694;29;20291;-74
2023/11/08 00:03:50;;;;;;;1.55;0.52;;;;;;;4.46;100.00;96001.94;1023545;28;20034;-74
2023/11/08 00:04:20;;;;;;;0.17;0.17;;;;;;;4.48;100.00;96003.31;1034994;28;20256;-75
2023/11/08 00:04:51;;;;;;;0.00;0.00;;;;;;;4.52;100.00;96002.91;1035279;28;20096;-74
2023/11/08 00:05:21;;;;;;;0.00;0.00;;;;;;;4.51;100.00;96006.50;1034992;28;20022;-71
2023/11/08 00:05:52;;;;;;;0.00;0.00;;;;;;;4.45;100.00;96003.75;1026913;28;20031;-73
2023/11/08 00:06:23;;;;;;;0.38;0.38;;;;;;;4.38;100.00;95994.47;1026802;28;20211;-75
2023/11/08 00:06:53;;;;;;;0.80;0.28;;;;;;;4.42;100.00;95999.00;1026608;28;20030;-74
2023/11/08 00:07:23;;;;;;;0.38;0.20;;;;;;;4.43;100.00;95998.00;1030925;28;20451;-73
2023/11/08 00:07:54;;;;;;;0.10;0.10;;;;;;;4.40;100.00;95998.44;1026981;28;20019;-74
2023/11/08 00:08:25;;;;;;;0.08;0.08;;;;;;;4.39;100.00;96004.66;1026834;28;20505;-73
2023/11/08 00:08:58;;;;;;;0.00;0.00;;;;;;;4.35;100.00;95995.69;1027069;28;20039;-75
2023/11/08 00:09:28;;;;;;;0.10;0.10;;;;;;;4.35;100.00;95995.69;1027091;28;20026;-74
2023/11/08 00:09:59;;;;;;;1.27;0.70;;;;;;;4.34;100.00;95991.50;1027135;28;20316;-74
2023/11/08 00:10:31;;;;;;;0.15;0.15;;;;;;;4.35;100.00;95995.69;1029933;28;20103;-73
2023/11/08 00:11:03;;;;;;;0.00;0.00;;;;;;;4.34;100.00;95999.28;1031155;28;20018;-73
2023/11/08 00:11:33;;;;;;;0.10;0.10;;;;;;;4.28;100.00;95997.56;1034977;28;20261;-75
2023/11/08 00:12:04;;;;;;;0.17;0.17;;;;;;;4.34;100.00;96001.09;1030664;28;20258;-74
2023/11/08 00:12:35;;;;;;;0.15;0.15;;;;;;;4.25;100.00;95983.19;1031497;28;20054;-73
2023/11/08 00:13:06;;;;;;;0.10;0.10;;;;;;;4.33;100.00;95997.72;1026959;28;20077;-74
2023/11/08 00:13:39;;;;;;;0.00;0.00;;;;;;;4.33;100.00;95995.13;1027077;28;20697;-74
2023/11/08 00:14:10;;;;;;;0.20;0.20;;;;;;;4.32;100.00;95993.50;1030785;28;20033;-73
2023/11/08 00:14:40;;;;;;;2.63;1.38;;;;;;;4.27;100.00;95995.97;1031894;28;20278;-75
2023/11/08 00:15:11;;;;;;;0.00;0.00;;;;;;;4.35;100.00;96002.69;1027208;28;20294;-74
2023/11/08 00:15:41;;;;;;;0.00;0.00;;;;;;;4.34;100.00;95996.69;1030982;28;20030;-75
2023/11/08 00:16:12;;;;;;;2.05;1.15;;;;;;;4.37;100.00;96001.47;1026851;28;20038;-74
2023/11/08 00:16:42;;;;;;;0.10;0.10;;;;;;;4.39;100.00;96003.81;1030795;28;20065;-72
2023/11/08 00:17:13;;;;;;;0.00;0.00;;;;;;;4.37;100.00;96001.47;1030959;28;20121;-74
2023/11/08 00:17:44;;;;;;;0.00;0.00;;;;;;;4.35;100.00;95995.69;1030915;28;20034;-72
2023/11/08 00:18:16;;;;;;;0.10;0.10;;;;;;;4.41;100.00;96007.03;1026998;28;20014;-72
2023/11/08 00:18:46;;;;;;;0.50;0.30;;;;;;;4.39;100.00;96003.81;1030700;28;20393;-75
2023/11/08 00:19:17;;;;;;;1.80;0.40;;;;;;;4.39;100.00;96004.66;1030794;28;20258;-74
2023/11/08 00:19:47;;;;;;;0.10;0.10;;;;;;;4.41;100.00;96004.41;1031110;28;20530;-74
2023/11/08 00:20:18;;;;;;;0.22;0.22;;;;;;;4.38;100.00;96000.44;1030872;28;20421;-75
2023/11/08 00:20:48;;;;;;;0.00;0.00;;;;;;;4.34;100.00;95996.69;1030359;28;20054;-74
2023/11/08 00:21:19;;;;;;;1.70;0.65;;;;;;;4.39;100.00;96009.84;1030786;28;20026;-73
2023/11/08 00:21:49;;;;;;;0.80;0.80;;;;;;;4.33;100.00;95996.94;1034874;28;20018;-75
2023/11/08 00:22:20;;;;;;;0.52;0.52;;;;;;;4.40;100.00;96011.44;1034990;28;20053;-74
2023/11/08 00:22:51;;;;;;;0.00;0.00;;;;;;;4.36;100.00;95999.88;1035062;28;20018;-74
2023/11/08 00:23:21;;;;;;;0.00;0.00;;;;;;;4.39;100.00;96012.44;1034916;28;20261;-72
2023/11/08 00:23:52;;;;;;;0.65;0.65;;;;;;;4.40;100.00;96008.03;1030878;28;20433;-74
2023/11/08 00:24:22;;;;;;;0.00;0.00;;;;;;;4.29;100.00;96000.94;1034955;28;20026;-73
2023/11/08 00:24:53;;;;;;;0.10;0.10;;;;;;;4.34;100.00;96007.09;1031160;28;20065;-72
2023/11/08 00:25:23;;;;;;;5.28;0.32;;;;;;;4.27;100.00;96008.19;1037276;28;20104;-74
2023/11/08 00:25:54;;;;;;;1.55;1.23;;;;;;;4.14;100.00;95991.72;1030744;28;20021;-72
2023/11/08 00:26:24;;;;;;;0.10;0.10;;;;;;;4.31;100.00;96012.72;1022909;29;20023;-70
2023/11/08 00:26:55;;;;;;;0.08;0.08;;;;;;;4.25;100.00;96003.97;1023010;28;20034;-74
2023/11/08 00:27:26;;;;;;;0.28;0.20;;;;;;;4.36;100.00;96020.66;1030969;28;20030;-73
2023/11/08 00:27:56;;;;;;;0.00;0.00;;;;;;;4.36;100.00;96015.47;1035101;28;20029;-74
2023/11/08 00:28:27;;;;;;;0.20;0.20;;;;;;;4.35;100.00;96013.06;1034800;28;20077;-74
2023/11/08 00:28:58;;;;;;;0.15;0.08;;;;;;;4.34;100.00;96014.88;1030888;28;20095;-72
2023/11/08 00:29:28;;;;;;;0.00;0.00;;;;;;;4.32;100.00;96016.88;1034908;28;20041;-73
2023/11/08 00:29:59;;;;;;;0.00;0.00;;;;;;;4.34;100.00;96009.69;1027018;28;20019;-73
2023/11/08 00:30:29;;;;;;;0.20;0.20;;;;;;;4.34;100.00;96017.47;1026236;28;20098;-72
2023/11/08 00:31:01;;;;;;;0.00;0.00;;;;;;;4.33;100.00;96013.31;1030855;28;20337;-73
2023/11/08 00:31:32;;;;;;;0.10;0.10;;;;;;;4.34;100.00;96014.09;1031238;28;20034;-75
2023/11/08 00:32:02;;;;;;;0.40;0.40;;;;;;;4.33;100.00;96013.31;1031119;28;20266;-73
2023/11/08 00:32:33;;;;;;;0.00;0.00;;;;;;;4.25;100.00;96008.38;1039023;28;20010;-72
2023/11/08 00:33:03;;;;;;;0.00;0.00;;;;;;;4.33;100.00;96015.91;1030771;28;20580;-74
2023/11/08 00:33:34;;;;;;;0.10;0.10;;;;;;;4.27;100.00;96014.16;1026928;28;20026;-74
2023/11/08 00:34:04;;;;;;;0.03;0.03;;;;;;;4.29;100.00;96013.94;1027112;28;20087;-75
2023/11/08 00:34:35;;;;;;;0.40;0.40;;;;;;;4.32;100.00;96014.28;1023287;28;20023;-73
2023/11/08 00:35:05;;;;;;;0.00;0.00;;;;;;;4.31;100.00;96010.13;1031387;28;20018;-74
2023/11/08 00:35:38;;;;;;;0.00;0.00;;;;;;;4.22;100.00;96001.81;1031093;28;20086;-75
2023/11/08 00:36:09;;;;;;;0.30;0.28;;;;;;;4.29;100.00;96014.72;1035502;28;20517;-74
2023/11/08 00:36:40;;;;;;;0.00;0.00;;;;;;;4.29;100.00;96013.94;1039302;28;20272;-72
2023/11/08 00:37:10;;;;;;;0.00;0.00;;;;;;;4.25;100.00;96013.56;1030335;28;20030;-73
2023/11/08 00:37:40;;;;;;;0.30;0.30;;;;;;;4.24;100.00;96012.00;1029654;28;20030;-75
2023/11/08 00:38:11;;;;;;;0.00;0.00;;;;;;;4.26;100.00;96009.97;1030860;28;20022;-75
2023/11/08 00:38:41;;;;;;;0.00;0.00;;;;;;;4.27;100.00;96015.97;1029934;28;20027;-73
2023/11/08 00:39:15;;;;;;;0.00;0.00;;;;;;;4.25;100.00;96018.75;1027791;28;20015;-76
2023/11/08 00:39:47;;;;;;;0.10;0.08;;;;;;;4.21;100.00;96018.41;1023383;28;20035;-74
2023/11/08 00:40:17;;;;;;;0.00;0.00;;;;;;;4.17;100.00;96011.25;1026616;28;20349;-73
2023/11/08 00:40:48;;;;;;;0.70;0.30;;;;;;;4.21;100.00;96017.63;1031054;28;20321;-73
2023/11/08 00:41:18;;;;;;;0.20;0.20;;;;;;;4.12;100.00;96003.31;1035801;28;20029;-76
2023/11/08 00:41:49;;;;;;;1.58;1.48;;;;;;;4.18;100.00;96012.84;1026960;28;20537;-73
2023/11/08 00:42:19;;;;;;;0.05;0.05;;;;;;;4.16;100.00;96014.88;1026793;28;20060;-73
2023/11/08 00:42:50;;;;;;;0.75;0.52;;;;;;;4.14;100.00;96015.09;1030839;28;20033;-73
2023/11/08 00:43:20;;;;;;;0.30;0.30;;;;;;;4.11;100.00;96010.31;1030886;28;20033;-73
2023/11/08 00:43:55;;;;;;;0.00;0.00;;;;;;;4.11;100.00;96015.50;1026782;28;20034;-73
2023/11/08 00:44:26;;;;;;;0.00;0.00;;;;;;;4.05;100.00;96002.59;1023512;28;20614;-72
2023/11/08 00:44:56;;;;;;;0.00;0.00;;;;;;;4.04;100.00;96001.00;1025279;28;20259;-76
2023/11/08 00:45:27;;;;;;;0.20;0.20;;;;;;;4.07;100.00;96005.78;1019572;29;20020;-74
2023/11/08 00:46:02;;;;;;;0.03;0.03;;;;;;;4.08;100.00;96012.53;1028262;28;20014;-74
2023/11/08 00:46:32;;;;;;;0.00;0.00;;;;;;;4.07;100.00;96016.16;1030645;28;20026;-72
2023/11/08 00:47:03;;;;;;;3.63;0.45;;;;;;;4.07;100.00;96014.34;1032102;28;20249;-73
2023/11/08 00:47:34;;;;;;;0.20;0.20;;;;;;;4.00;100.00;96001.44;1035389;28;20543;-74
2023/11/08 00:48:05;;;;;;;0.00;0.00;;;;;;;4.07;100.00;96010.97;1034962;28;20332;-74
2023/11/08 00:48:36;;;;;;;0.10;0.10;;;;;;;4.07;100.00;96011.75;1030605;28;20022;-74
2023/11/08 00:49:06;;;;;;;0.03;0.03;;;;;;;4.06;100.00;96014.56;1030612;28;20261;-72
2023/11/08 00:49:37;;;;;;;0.03;0.03;;;;;;;3.97;100.00;96006.25;1030992;28;20084;-73
2023/11/08 00:50:08;;;;;;;1.65;0.65;;;;;;;3.96;100.00;96000.28;1031002;28;20027;-73
2023/11/08 00:50:38;;;;;;;0.00;0.00;;;;;;;4.00;100.00;96005.84;1038400;28;20032;-75
2023/11/08 00:51:09;;;;;;;0.38;0.38;;;;;;;4.11;100.00;96014.72;1030527;28;20597;-74
2023/11/08 00:51:40;;;;;;;0.00;0.00;;;;;;;4.09;100.00;96016.72;1026683;28;20026;-72
2023/11/08 00:52:11;;;;;;;0.00;0.00;;;;;;;4.09;100.00;96016.72;1027263;28;20094;-74
2023/11/08 00:52:41;;;;;;;0.00;0.00;;;;;;;4.06;100.00;96012.78;1032510;28;20284;-72
2023/11/08 00:53:15;;;;;;;0.15;0.15;;;;;;;4.10;100.00;96013.13;1030890;28;20109;-75
2023/11/08 00:53:47;;;;;;;0.32;0.32;;;;;;;4.02;100.00;95998.59;1037052;28;20033;-72
2023/11/08 00:54:17;;;;;;;1.20;0.73;;;;;;;4.09;100.00;96014.94;1032056;28;20265;-72
2023/11/08 00:54:49;;;;;;;0.03;0.03;;;;;;;4.11;100.00;96012.13;1031273;28;20266;-74
2023/11/08 00:55:19;;;;;;;0.10;0.10;;;;;;;4.11;100.00;96012.13;1030265;28;20071;-74
2023/11/08 00:55:49;;;;;;;0.10;0.10;;;;;;;4.10;100.00;96018.34;1026844;28;20273;-73
2023/11/08 00:56:21;;;;;;;0.75;0.75;;;;;;;4.13;100.00;96015.31;1027553;28;20027;-73
2023/11/08 00:56:51;;;;;;;0.00;0.00;;;;;;;4.12;100.00;96017.09;1026629;28;20380;-74
2023/11/08 00:57:21;;;;;;;0.22;0.10;;;;;;;4.12;100.00;96021.50;1026921;28;20286;-74
2023/11/08 00:57:52;;;;;;;0.40;0.40;;;;;;;4.10;100.00;96010.53;1029628;28;20514;-74
2023/11/08 00:58:22;;;;;;;0.00;0.00;;;;;;;4.16;100.00;96020.88;1024115;28;20102;-72
2023/11/08 00:58:53;;;;;;;0.13;0.13;;;;;;;4.11;100.00;96015.50;1026645;28;20099;-72
2023/11/08 00:59:23;;;;;;;0.00;0.00;;;;;;;4.18;100.00;96021.44;1026700;28;20023;-74
2023/11/08 00:59:54;;;;;;;0.00;0.00;;;;;;;4.17;100.00;96021.66;1026040;28;20023;-74
2023/11/08 01:00:24;;;;;;;0.35;0.20;;;;;;;4.19;100.00;96022.22;1038950;28;20064;-72
2023/11/08 01:00:55;;;;;;;0.17;0.10;;;;;;;4.19;100.00;96022.22;1034187;28;20133;-73
2023/11/08 01:01:25;;;;;;;0.57;0.25;;;;;;;4.22;100.00;96024.38;1038838;28;20024;-72
2023/11/08 01:01:56;;;;;;;0.00;0.00;;;;;;;4.24;100.00;96028.38;1036461;28;20025;-73
2023/11/08 01:02:26;;;;;;;0.20;0.20;;;;;;;4.25;100.00;96024.75;1030775;28;20088;-74
2023/11/08 01:02:57;;;;;;;0.10;0.10;;;;;;;4.21;100.00;96012.41;1030757;28;20037;-74
2023/11/08 01:03:27;;;;;;;0.00;0.00;;;;;;;4.27;100.00;96029.75;1034772;28;20017;-74
2023/11/08 01:03:57;;;;;;;0.00;0.00;;;;;;;4.26;100.00;96020.38;1036829;28;20028;-72
2023/11/08 01:04:28;;;;;;;0.32;0.32;;;;;;;4.30;100.00;96025.94;1034518;28;20026;-73
2023/11/08 01:04:58;;;;;;;0.10;0.10;;;;;;;4.28;100.00;96023.53;1030009;28;20053;-73
2023/11/08 01:05:31;;;;;;;0.30;0.30;;;;;;;4.32;100.00;96023.88;1026786;28;20462;-74
2023/11/08 01:06:01;;;;;;;0.55;0.30;;;;;;;4.33;100.00;96023.69;1030454;28;20539;-73
2023/11/08 01:06:32;;;;;;;0.25;0.25;;;;;;;4.34;100.00;96021.88;1035580;28;20275;-74
2023/11/08 01:07:04;;;;;;;0.10;0.10;;;;;;;4.36;100.00;96022.44;1046411;28;20025;-73
2023/11/08 01:07:36;;;;;;;0.45;0.45;;;;;;;4.34;100.00;96014.88;1034710;28;20563;-76
2023/11/08 01:08:07;;;;;;;0.00;0.00;;;;;;;4.35;100.00;96018.25;1030669;28;20622;-73
2023/11/08 01:08:37;;;;;;;0.57;0.57;;;;;;;4.34;100.00;96025.28;1034090;28;20728;-74
2023/11/08 01:09:09;;;;;;;0.10;0.10;;;;;;;4.32;100.00;96013.50;1031372;28;20285;-73
2023/11/08 01:09:39;;;;;;;0.00;0.00;;;;;;;4.27;100.00;96016.75;1035114;28;20081;-73
2023/11/08 01:10:10;;;;;;;0.15;0.10;;;;;;;4.33;100.00;96017.72;1034637;28;20260;-72
2023/11/08 01:10:40;;;;;;;0.00;0.00;;;;;;;4.33;100.00;96025.50;1034358;28;20022;-74
2023/11/08 01:11:11;;;;;;;0.00;0.00;;;;;;;4.32;100.00;96019.50;1034741;28;20030;-74
2023/11/08 01:11:42;;;;;;;0.00;0.00;;;;;;;4.31;100.00;96024.91;1038619;28;20033;-74
2023/11/08 01:12:12;;;;;;;0.15;0.15;;;;;;;4.28;100.00;96009.75;1034599;28;20037;-74
2023/11/08 01:12:44;;;;;;;0.00;0.00;;;;;;;4.34;100.00;96022.66;1034854;28;20272;-75
2023/11/08 01:13:14;;;;;;;0.00;0.00;;;;;;;4.29;100.00;96009.53;1039059;28;20120;-72
2023/11/08 01:13:46;;;;;;;0.25;0.25;;;;;;;4.35;100.00;96015.66;1030610;28;20293;-72
2023/11/08 01:14:16;;;;;;;0.00;0.00;;;;;;;4.35;100.00;96015.66;1034712;28;20412;-73
2023/11/08 01:14:47;;;;;;;0.00;0.00;;;;;;;4.34;100.00;96017.47;1030650;28;20285;-74
2023/11/08 01:15:17;;;;;;;0.00;0.00;;;;;;;4.29;100.00;96014.72;1026603;28;20034;-73
2023/11/08 01:15:48;;;;;;;0.00;0.00;;;;;;;4.32;100.00;96011.69;1030611;28;20026;-73
2023/11/08 01:16:18;;;;;;;0.00;0.00;;;;;;;4.32;100.00;96014.28;1030800;28;20029;-73
2023/11/08 01:16:49;;;;;;;0.20;0.20;;;;;;;4.33;100.00;96018.50;1031658;28;20026;-74
2023/11/08 01:17:19;;;;;;;0.05;0.05;;;;;;;4.35;100.00;96013.06;1026563;28;20031;-73
2023/11/08 01:17:50;;;;;;;0.10;0.10;;;;;;;4.35;100.00;96013.06;1026736;28;20031;-74
2023/11/08 01:18:20;;;;;;;0.00;0.00;;;;;;;4.30;100.00;96005.16;1030670;28;20592;-74
2023/11/08 01:18:51;;;;;;;0.22;0.20;;;;;;;4.37;100.00;96011.84;1026616;28;20129;-73
2023/11/08 01:19:21;;;;;;;0.00;0.00;;;;;;;4.38;100.00;95997.06;1038778;28;20023;-73
2023/11/08 01:19:52;;;;;;;0.00;0.00;;;;;;;4.39;100.00;96004.66;1038653;28;20041;-74
2023/11/08 01:20:22;;;;;;;0.00;0.00;;;;;;;4.39;100.00;96004.66;1030555;28;20034;-74
2023/11/08 01:20:53;;;;;;;1.40;0.50;;;;;;;4.40;100.00;96014.03;1034136;28;20100;-72
2023/11/08 01:21:25;;;;;;;0.00;0.00;;;;;;;4.37;100.00;96000.66;1034347;28;20095;-75
2023/11/08 01:21:55;;;;;;;0.35;0.35;;;;;;;4.39;100.00;96009.84;1030719;28;20065;-71
2023/11/08 01:22:26;;;;;;;0.10;0.10;;;;;;;4.37;100.00;96006.66;1031852;28;20324;-72
2023/11/08 01:22:58;;;;;;;0.00;0.00;;;;;;;4.40;100.00;96006.22;1026623;28;20086;-73
2023/11/08 01:23:28;;;;;;;0.10;0.10;;;;;;;4.40;100.00;95995.84;1022918;28;20974;-75
2023/11/08 01:24:00;;;;;;;0.00;0.00;;;;;;;4.33;100.00;95989.91;1029413;28;20348;-73
2023/11/08 01:24:31;;;;;;;1.65;1.45;;;;;;;4.37;100.00;95990.28;1026570;28;20027;-72
2023/11/08 01:25:02;;;;;;;0.10;0.10;;;;;;;4.41;100.00;96005.22;1026914;28;20294;-73
2023/11/08 01:25:33;;;;;;;0.00;0.00;;;;;;;4.38;100.00;95997.84;1036026;28;20865;-75
2023/11/08 01:26:04;;;;;;;1.45;0.65;;;;;;;4.37;100.00;95993.66;1030548;28;20277;-75
2023/11/08 01:26:35;;;;;;;0.43;0.43;;;;;;;4.45;100.00;95998.56;1030614;28;20015;-73
2023/11/08 01:27:05;;;;;;;0.10;0.10;;;;;;;4.40;100.00;95993.25;1034679;28;20265;-74
2023/11/08 01:27:36;;;;;;;0.10;0.10;;;;;;;4.37;100.00;95991.06;1034928;28;20080;-74
2023/11/08 01:28:06;;;;;;;0.00;0.00;;;;;;;4.38;100.00;95992.66;1026364;28;20607;-73
2023/11/08 01:28:37;;;;;;;0.05;0.05;;;;;;;4.43;100.00;96008.41;1030402;28;20026;-73
2023/11/08 01:29:07;;;;;;;0.00;0.00;;;;;;;4.42;100.00;95998.19;1026677;28;20073;-73
2023/11/08 01:29:38;;;;;;;0.10;0.10;;;;;;;4.42;100.00;95999.00;1026850;28;20135;-74
2023/11/08 01:30:08;;;;;;;1.65;1.55;;;;;;;4.45;100.00;96003.75;1034489;28;20022;-73
2023/11/08 01:30:39;;;;;;;0.00;0.00;;;;;;;4.45;100.00;96001.16;1038144;28;20065;-75
2023/11/08 01:31:09;;;;;;;0.00;0.00;;;;;;;4.45;100.00;95993.38;1042927;28;20516;-74
2023/11/08 01:31:40;;;;;;;0.17;0.10;;;;;;;4.46;100.00;95999.34;1038704;28;20017;-73
2023/11/08 01:32:11;;;;;;;0.00;0.00;;;;;;;4.38;100.00;95990.06;1038456;28;20078;-73
2023/11/08 01:32:41;;;;;;;0.00;0.00;;;;;;;4.43;100.00;96000.59;1034591;28;20728;-73
2023/11/08 01:33:12;;;;;;;0.00;0.00;;;;;;;4.44;100.00;95991.78;1030777;28;20043;-74
2023/11/08 01:33:42;;;;;;;0.00;0.00;;;;;;;4.44;100.00;95996.97;1034761;28;20026;-73
2023/11/08 01:34:13;;;;;;;0.32;0.32;;;;;;;4.38;100.00;95989.25;1034656;28;20018;-74
2023/11/08 01:34:44;;;;;;;0.00;0.00;;;;;;;4.47;100.00;96000.97;1034704;28;20393;-73
2023/11/08 01:35:14;;;;;;;0.00;0.00;;;;;;;4.45;100.00;95995.97;1038819;28;20025;-73
2023/11/08 01:35:45;;;;;;;0.00;0.00;;;;;;;4.46;100.00;95997.56;1034704;28;20021;-73
2023/11/08 01:36:15;;;;;;;0.10;0.10;;;;;;;4.45;100.00;95998.56;1030588;28;20030;-74
2023/11/08 01:36:46;;;;;;;0.15;0.15;;;;;;;4.38;100.00;95987.47;1034682;28;20445;-74
2023/11/08 01:37:16;;;;;;;0.00;0.00;;;;;;;4.46;100.00;95994.16;1030616;28;20018;-72
2023/11/08 01:37:47;;;;;;;0.00;0.00;;;;;;;4.41;100.00;95987.03;1030647;28;20026;-72
2023/11/08 01:38:17;;;;;;;0.00;0.00;;;;;;;4.46;100.00;96000.16;1034504;28;20021;-74
2023/11/08 01:38:48;;;;;;;0.05;0.05;;;;;;;4.45;100.00;96003.75;1030619;28;20304;-72
2023/11/08 01:39:18;;;;;;;0.00;0.00;;;;;;;4.46;100.00;95994.16;1030546;28;20022;-75
2023/11/08 01:39:48;;;;;;;0.10;0.10;;;;;;;4.49;100.00;95996.31;1034611;28;20037;-73
2023/11/08 01:40:20;;;;;;;0.47;0.47;;;;;;;4.51;100.00;95996.91;1038751;28;20026;-72
2023/11/08 01:40:51;;;;;;;0.10;0.10;;;;;;;4.46;100.00;95983.75;1036335;28;20037;-74
2023/11/08 01:41:22;;;;;;;0.00;0.00;;;;;;;4.53;100.00;95994.91;1034301;28;20261;-74
2023/11/08 01:41:52;;;;;;;0.10;0.10;;;;;;;4.52;100.00;95988.09;1034660;28;20022;-74
2023/11/08 01:42:22;;;;;;;0.00;0.00;;;;;;;4.55;100.00;95992.84;1032198;28;20034;-72
2023/11/08 01:42:53;;;;;;;0.00;0.00;;;;;;;4.57;100.00;95997.84;1034605;28;20049;-73
2023/11/08 01:43:31;;;;;;;0.10;0.10;;;;;;;4.56;100.00;95998.84;1038666;28;20068;-72
2023/11/08 01:44:03;;;;;;;0.00;0.00;;;;;;;4.53;100.00;95983.69;1035327;28;20156;-73
2023/11/08 01:44:34;;;;;;;0.88;0.88;;;;;;;4.58;100.00;95995.03;1034541;28;20283;-74
2023/11/08 01:45:05;;;;;;;0.00;0.00;;;;;;;4.59;100.00;95994.00;1030947;28;20283;-73
2023/11/08 01:45:35;;;;;;;0.00;0.00;;;;;;;4.55;100.00;95981.69;1031863;28;20261;-73
2023/11/08 01:46:21;;;;;;;0.00;0.00;;;;;;;4.58;100.00;95992.44;1038839;28;20013;-74
2023/11/08 01:46:53;;;;;;;0.30;0.30;;;;;;;4.53;100.00;95984.50;1030427;28;20077;-73
2023/11/08 01:47:24;;;;;;;0.00;0.00;;;;;;;4.57;100.00;95984.84;1027148;28;20333;-74
2023/11/08 01:47:54;;;;;;;0.10;0.10;;;;;;;4.46;100.00;95979.38;1034650;28;20807;-75
2023/11/08 01:48:25;;;;;;;0.00;0.00;;;;;;;4.47;100.00;95969.78;1034660;28;20025;-76
2023/11/08 01:48:56;;;;;;;0.40;0.40;;;;;;;4.53;100.00;95981.91;1030496;28;20612;-74
2023/11/08 01:49:27;;;;;;;0.00;0.00;;;;;;;4.49;100.00;95980.72;1030453;28;20022;-74
2023/11/08 01:49:57;;;;;;;0.00;0.00;;;;;;;4.47;100.00;95982.78;1026474;28;20701;-73
2023/11/08 01:50:28;;;;;;;0.05;0.05;;;;;;;4.44;100.00;95981.41;1021061;28;20019;-73
2023/11/08 01:50:59;;;;;;;0.20;0.20;;;;;;;4.36;100.00;95971.31;1022879;28;20026;-73
2023/11/08 01:51:30;;;;;;;0.00;0.00;;;;;;;4.40;100.00;95982.84;1026698;28;20029;-74
2023/11/08 01:52:01;;;;;;;0.35;0.35;;;;;;;4.39;100.00;95983.88;1026441;28;20831;-73
2023/11/08 01:52:32;;;;;;;2.38;0.90;;;;;;;4.32;100.00;95983.13;1029495;28;20033;-73
2023/11/08 01:53:02;;;;;;;0.20;0.20;;;;;;;4.29;100.00;95970.56;1022298;29;20378;-72
2023/11/08 01:53:36;;;;;;;0.28;0.28;;;;;;;4.29;100.00;95975.75;1026504;28;20062;-74
2023/11/08 01:54:06;;;;;;;0.20;0.20;;;;;;;4.29;100.00;95974.97;1022498;29;20020;-74
2023/11/08 01:54:39;;;;;;;0.00;0.00;;;;;;;4.28;100.00;95981.97;1022556;29;20258;-73
2023/11/08 01:55:09;;;;;;;0.00;0.00;;;;;;;4.27;100.00;95985.59;1022425;29;20505;-74
2023/11/08 01:55:40;;;;;;;0.00;0.00;;;;;;;4.23;100.00;95984.44;1023384;28;20267;-73
2023/11/08 01:56:11;;;;;;;4.85;0.30;;;;;;;4.18;100.00;95984.28;1024628;28;20038;-73
2023/11/08 01:56:41;;;;;;;0.32;0.32;;;;;;;4.15;100.00;95984.72;1034654;28;20026;-72
2023/11/08 01:57:11;;;;;;;0.20;0.10;;;;;;;4.10;100.00;95982.75;1022453;29;20023;-72
2023/11/08 01:57:42;;;;;;;0.98;0.40;;;;;;;4.12;100.00;95988.53;1026408;28;20018;-74
2023/11/08 01:58:12;;;;;;;0.00;0.00;;;;;;;4.11;100.00;95983.56;1028738;28;20462;-74
2023/11/08 01:58:45;;;;;;;0.00;0.00;;;;;;;4.11;100.00;95991.34;1026485;28;20031;-74
2023/11/08 01:59:17;;;;;;;0.03;0.03;;;;;;;4.04;100.00;95982.84;1022492;29;20054;-72
2023/11/08 01:59:48;;;;;;;0.00;0.00;;;;;;;4.10;100.00;95989.78;1023077;28;20286;-72
2023/11/08 02:00:18;;;;;;;0.20;0.20;;;;;;;4.07;100.00;95990.97;1026551;28;20265;-73
2023/11/08 02:00:49;;;;;;;0.00;0.00;;;;;;;4.09;100.00;95988.97;1022077;29;20023;-72
2023/11/08 02:01:20;;;;;;;0.00;0.00;;;;;;;4.08;100.00;95991.78;1022742;28;20039;-74
2023/11/08 02:01:51;;;;;;;0.00;0.00;;;;;;;4.07;100.00;95992.78;1033647;28;20018;-74
2023/11/08 02:02:22;;;;;;;0.03;0.03;;;;;;;4.04;100.00;95993.22;1034488;28;20018;-73
2023/11/08 02:02:52;;;;;;;0.00;0.00;;;;;;;4.10;100.00;96005.34;1029991;28;20026;-72
2023/11/08 02:03:23;;;;;;;0.00;0.00;;;;;;;4.03;100.00;95994.25;1028465;28;20402;-74
2023/11/08 02:03:53;;;;;;;0.00;0.00;;;;;;;4.07;100.00;96003.19;1030507;28;20021;-75
2023/11/08 02:04:25;;;;;;;0.22;0.22;;;;;;;3.99;100.00;95989.47;1030487;28;20260;-74
2023/11/08 02:04:55;;;;;;;0.00;0.00;;;;;;;4.03;100.00;95999.44;1026425;28;20457;-74
2023/11/08 02:05:26;;;;;;;0.20;0.20;;;;;;;4.03;100.00;95992.44;1022496;29;20263;-72
2023/11/08 02:05:56;;;;;;;29.30;1.85;;;;;;;4.00;100.00;95993.66;1018574;29;20444;-73
2023/11/08 02:06:27;;;;;;;0.00;0.00;;;;;;;3.96;100.00;95989.91;1022482;29;20114;-72
2023/11/08 02:06:57;;;;;;;0.00;0.00;;;;;;;3.97;100.00;96003.66;1022458;29;20067;-73
2023/11/08 02:07:28;;;;;;;0.00;0.00;;;;;;;3.98;100.00;96002.66;1022653;28;20023;-74
2023/11/08 02:07:58;;;;;;;0.00;0.00;;;;;;;3.91;100.00;95994.91;1026673;28;20585;-73
2023/11/08 02:08:29;;;;;;;0.10;0.10;;;;;;;3.92;100.00;95988.75;1027114;28;20106;-72
2023/11/08 02:09:00;;;;;;;0.65;0.65;;;;;;;3.96;100.00;95995.09;1022665;28;20122;-71
2023/11/08 02:09:31;;;;;;;0.00;0.00;;;;;;;3.95;100.00;96001.25;1026577;28;20018;-71
2023/11/08 02:10:02;;;;;;;0.00;0.00;;;;;;;3.89;100.00;95989.16;1026283;28;20410;-71
2023/11/08 02:10:33;;;;;;;0.00;0.00;;;;;;;3.95;100.00;95992.69;1026423;28;20030;-72
2023/11/08 02:11:04;;;;;;;0.10;0.10;;;;;;;3.90;100.00;95995.94;1026811;28;20262;-75
2023/11/08 02:11:34;;;;;;;0.00;0.00;;;;;;;3.96;100.00;96000.28;1026518;28;20050;-74
2023/11/08 02:12:05;;;;;;;0.00;0.00;;;;;;;3.86;100.00;95979.22;1026626;28;20030;-72
2023/11/08 02:12:36;;;;;;;0.00;0.00;;;;;;;3.89;100.00;95994.34;1026581;28;20441;-73
2023/11/08 02:13:07;;;;;;;0.10;0.10;;;;;;;3.90;100.00;95995.94;1030324;28;20669;-72
2023/11/08 02:13:38;;;;;;;0.00;0.00;;;;;;;3.93;100.00;95995.50;1027624;28;21019;-75
2023/11/08 02:14:08;;;;;;;0.10;0.10;;;;;;;3.92;100.00;95991.34;1022140;29;20391;-73
2023/11/08 02:15:00;;;;;;;0.00;0.00;;;;;;;3.90;100.00;95993.34;1026459;28;20097;-73
2023/11/08 02:15:41;;;;;;;0.00;0.00;;;;;;;3.84;100.00;95996.00;1033614;28;20014;-74
2023/11/08 02:16:11;;;;;;;0.50;0.50;;;;;;;3.80;100.00;95990.44;1034145;28;20816;-74
2023/11/08 02:16:42;;;;;;;0.17;0.17;;;;;;;3.76;100.00;95986.69;1029340;28;20364;-74
2023/11/08 02:17:12;;;;;;;0.20;0.20;;;;;;;3.77;100.00;95990.88;1030484;28;20023;-74
2023/11/08 02:17:44;;;;;;;0.20;0.20;;;;;;;3.75;100.00;95992.88;1030411;28;20034;-73
2023/11/08 02:18:15;;;;;;;0.63;0.63;;;;;;;3.73;100.00;95994.91;1030589;28;20022;-74
2023/11/08 02:18:45;;;;;;;0.05;0.05;;;;;;;3.73;100.00;95990.50;1031508;28;20293;-74
2023/11/08 02:19:16;;;;;;;0.00;0.00;;;;;;;3.71;100.00;95996.91;1038547;28;20260;-74
2023/11/08 02:19:46;;;;;;;0.00;0.00;;;;;;;3.65;100.00;95992.56;1038381;28;20696;-72
2023/11/08 02:20:17;;;;;;;0.00;0.00;;;;;;;3.62;100.00;95982.59;1039925;28;20022;-72
2023/11/08 02:20:48;;;;;;;0.50;0.50;;;;;;;3.67;100.00;95990.56;1033858;28;20030;-74
2023/11/08 02:21:19;;;;;;;0.10;0.10;;;;;;;3.68;100.00;95987.72;1026236;28;20549;-73
2023/11/08 02:21:50;;;;;;;0.00;0.00;;;;;;;3.65;100.00;95992.56;1021682;29;20030;-74
2023/11/08 02:22:20;;;;;;;0.00;0.00;;;;;;;3.64;100.00;95990.97;1029493;28;20030;-74
2023/11/08 02:22:51;;;;;;;0.00;0.00;;;;;;;3.62;100.00;95980.00;1034180;28;20264;-72
2023/11/08 02:23:21;;;;;;;0.00;0.00;;;;;;;3.70;100.00;95990.91;1034821;28;20018;-73
2023/11/08 02:23:52;;;;;;;1.23;0.85;;;;;;;3.66;100.00;95983.78;1034993;28;20042;-72
2023/11/08 02:24:22;;;;;;;0.00;0.00;;;;;;;3.71;100.00;95989.91;1038634;28;20171;-74
2023/11/08 02:24:53;;;;;;;0.03;0.03;;;;;;;3.69;100.00;95988.53;1030818;28;20671;-73
2023/11/08 02:25:23;;;;;;;0.03;0.03;;;;;;;3.67;100.00;95987.97;1030447;28;20022;-74
2023/11/08 02:25:54;;;;;;;0.20;0.20;;;;;;;3.63;100.00;95985.00;1030711;28;20018;-74